Colcord, OK (74338)

3:24 AM CST on December 21, 2014 (GMT -0600)
1/2 Mile South of Gentry | Change Station
CLOSE
Current Station
Personal Weather Station
Location: Gentry, AR
Elevation: 1225 ft
Nearby Weather Stations

Elev 1225 ft 36.26 °N, 94.49 °W | Updated 2 seconds ago

Overcast
Overcast
42.3 °F
Feels Like 39 °F
N
4.9
Wind Variable Wind from SW
Gusts 4.9 mph

Today
High -- | Low -- °F
--% Chance of Precip.
Yesterday
High -- | Low -- °F
Precip. -- in
7:26 AM 5:07 PM
Waning Crescent, 1% visible
Pressure 30.16 in
Visibility 8.0 miles
Clouds Overcast 2000 ft
Windchill 39 °F
Dew Point 40 °F
Humidity 92%
Rainfall 0.00 in
Snow Depth Not available.
UV 0 out of 12
Pollen 5.70 out of 12
Air Quality Not available.
Flu Activity Not available.
METAR KSLG 210915Z AUTO 18006KT 8SM OVC020 06/02 A3016 RMK AO1

More Conditions Fewer Conditions

Pressure 30.16 in
Visibility 8.0 miles
Clouds Overcast 2000 ft
Windchill 39 °F
Dew Point 40 °F
Humidity 92%
Rainfall 0.00 in
Snow Depth Not available.
UV 0 out of 12
Pollen 5.70 out of 12
Air Quality Not available.
Flu Activity Not available.
METAR KSLG 210915Z AUTO 18006KT 8SM OVC020 06/02 A3016 RMK AO1

More Conditions Fewer Conditions

Nowcast | as of 1:38 am CST on December 21, 2014

At 138 am...National Weather Service Doppler radar and area surface observations indicated areas of light drizzle developing across portions of eastern Oklahoma and western Arkansas. Drizzle is expected to continue through much of Sunday morning...and with temperatures above freezing...reduced visibilities in the heaviest drizzle should be the only travel impacts.

×

10-Day Weather Forecast

Almanac

Astronomy

Dec. 21, 2014 Rise Set
Actual Time
Civil Twilight
Nautical Twilight
Astronomical Twilight
Moon
Length of Visible Light
Length of Day
Tomorrow will be .
, % of the Moon is Illuminated

Today's Extremes

State Highs State Lows

Community

WunderPhotos

Upload Photos

1,779,364 photos uploaded!

WunderBlogs® & News

Nearby

Air Quality

  Air Quality AQ Index Pollutant
Not available.

Snow Depth

Station Depth Elevation

Earthquake Activity

City Distance Mag. Time & Date
Minimum magnitude displayed is 2.5.

Coastal Water Temperatures

Place Temperature

Nearby Weather Stations